HELX

Luxor International Airport

Luxor, Egypt
METAR HELX 211900Z 00000KT CAVOK 16/05 Q1015 NOSIG
Observed Flight Rules
Jan-21 @ 19:00 UTC (an hour ago) Visual Flight Rules
Wind Visibility Clouds
Calm 10,000+ meters
  • Clear skies
Temperatures Readings
Current 16°C / 61°F
Dewpoint 5°C / 41°F
Humidity 48%
Altimeter 29.97" Hg
Pressure 1015 hPa
Elevation 88
METAR HELX 211900Z 00000KT CAVOK 16/05 Q1015 NOSIG
Observed Flight Rules
Jan-21 @ 19:00 UTC
(an hour ago)
VFR
Wind Visibility
Calm 10,000+ meters
Clouds
  • Clear skies
Temperature Dewpoint
16°C / 61°F 5°C / 41°F
Humidity Altimeter Pressure
48% 29.97" Hg 1015 hPa